ENHM

Heimdal Oilp

Heimdal Oilp, Norway
METAR ENHM 092150Z AUTO 35035G46KT 5000NDV -SHRA FEW021/// SCT034/// BKN052/// 04/02 Q1005 W08/S6
Observed Flight Rules
Dec-9 @ 21:50 UTC (29 minutes ago)
Wind Clouds Conditions
350° at 35 knots
 Gusting to 46 knots
  • Few at 2,100' AGL
  • Scattered at 3,400' AGL
  • Broken at 5,200' AGL
  • Light Rain
Temperatures Readings
Current 4°C / 39°F
Dewpoint 2°C / 36°F
Humidity 87%
Altimeter 29.68" Hg
Pressure 1005 hPa
Elevation 10
METAR ENHM 092150Z AUTO 35035G46KT 5000NDV -SHRA FEW021/// SCT034/// BKN052/// 04/02 Q1005 W08/S6
Observed Flight Rules
Dec-9 @ 21:50 UTC
(29 minutes ago)
Wind
350° at 35 knots
 Gusting to 46 knots
Clouds
  • Few at 2,100' AGL
  • Scattered at 3,400' AGL
  • Broken at 5,200' AGL
Conditions
  • Light Rain
Temperature Dewpoint
4°C / 39°F 2°C / 36°F
Humidity Altimeter Pressure
87% 29.68" Hg 1005 hPa